Time;durP1;ratioP1;P1;durP2;ratioP2;P2;SDS_P1;SDS_P2;PMS_P1;PMS_P2;Temp;Humidity;BMP_temperature;BMP_pressure;BME280_temperature;BME280_humidity;BME280_pressure;Samples;Min_cycle;Max_cycle;Signal;HPM_P1;HPM_P2
2023/07/08 00:01:58;;;;;;;46.22;13.00;;;;;;;;;;6149216;23;20022;-56
2023/07/08 00:04:26;;;;;;;40.40;11.93;;;;;;;;;;6149112;23;20392;-58
2023/07/08 00:07:00;;;;;;;31.08;11.95;;;;;;;;;;6149165;23;20078;-50
2023/07/08 00:09:27;;;;;;;33.17;13.18;;;;;;;;;;6149302;23;20059;-58
2023/07/08 00:12:01;;;;;;;45.60;13.65;;;;;;;;;;6149890;23;20025;-66
2023/07/08 00:14:34;;;;;;;45.25;13.18;;;;;;;;;;6146714;23;20088;-65
2023/07/08 00:17:15;;;;;;;41.05;13.80;;;;;;;;;;6150006;23;20092;-66
2023/07/08 00:19:50;;;;;;;41.63;13.23;;;;;;;;;;6148686;23;20022;-65
2023/07/08 00:22:24;;;;;;;39.08;13.40;;;;;;;;;;6149274;23;20033;-66
2023/07/08 00:24:51;;;;;;;;;;;;;;;;;;6149249;23;20025;-66
2023/07/08 00:27:18;;;;;;;38.95;13.30;;;;;;;;;;6124028;23;19922;-66
2023/07/08 00:29:52;;;;;;;44.42;13.32;;;;;;;;;;6148767;23;20030;-66
2023/07/08 00:32:19;;;;;;;39.22;13.90;;;;;;;;;;6150393;23;20425;-66
2023/07/08 00:34:53;;;;;;;44.85;14.90;;;;;;;;;;6148072;23;20021;-66
2023/07/08 00:37:20;;;;;;;52.20;15.63;;;;;;;;;;6149233;23;20485;-56
2023/07/08 00:39:54;;;;;;;48.03;14.70;;;;;;;;;;6148797;23;20052;-49
2023/07/08 00:42:24;;;;;;;41.03;15.00;;;;;;;;;;6149680;23;20025;-50
2023/07/08 00:44:52;;;;;;;54.13;16.08;;;;;;;;;;6148313;23;20021;-54
2023/07/08 00:47:26;;;;;;;48.05;14.98;;;;;;;;;;6149903;23;20053;-50
2023/07/08 00:49:56;;;;;;;44.25;14.93;;;;;;;;;;6147685;23;20017;-54
2023/07/08 00:52:30;;;;;;;54.25;16.00;;;;;;;;;;6150074;23;20060;-49
2023/07/08 00:55:02;;;;;;;52.42;15.68;;;;;;;;;;6150216;23;20026;-55
2023/07/08 00:57:37;;;;;;;49.53;16.17;;;;;;;;;;6149027;23;20033;-51
2023/07/08 01:00:06;;;;;;;47.75;15.85;;;;;;;;;;6149673;23;20093;-54
2023/07/08 01:02:49;;;;;;;61.42;16.17;;;;;;;;;;6148889;23;20068;-54
2023/07/08 01:05:19;;;;;;;53.00;16.50;;;;;;;;;;6148814;23;20282;-60
2023/07/08 01:07:55;;;;;;;48.50;15.55;;;;;;;;;;6151137;23;20021;-65
2023/07/08 01:10:26;;;;;;;47.97;15.60;;;;;;;;;;6151481;23;20033;-67
2023/07/08 01:13:02;;;;;;;47.93;17.40;;;;;;;;;;6151666;23;20032;-66
2023/07/08 01:15:39;;;;;;;57.58;16.38;;;;;;;;;;6148644;23;20253;-66
2023/07/08 01:18:21;;;;;;;50.45;17.50;;;;;;;;;;6150621;23;20029;-66
2023/07/08 01:20:48;;;;;;;49.72;17.02;;;;;;;;;;6148568;23;20298;-65
2023/07/08 01:23:23;;;;;;;53.70;17.75;;;;;;;;;;6151019;23;20087;-66
2023/07/08 01:25:50;;;;;;;69.35;18.58;;;;;;;;;;6149732;23;20483;-66
2023/07/08 01:28:24;;;;;;;65.95;19.58;;;;;;;;;;6150233;23;20594;-67
2023/07/08 01:30:51;;;;;;;66.47;18.85;;;;;;;;;;6149787;23;20022;-66
2023/07/08 01:33:26;;;;;;;64.65;19.17;;;;;;;;;;6150870;23;20026;-54
2023/07/08 01:35:55;;;;;;;44.63;15.57;;;;;;;;;;6150366;23;20025;-67
2023/07/08 01:38:25;;;;;;;59.33;17.92;;;;;;;;;;6151282;23;20022;-67
2023/07/08 01:40:59;;;;;;;53.25;17.35;;;;;;;;;;6149783;23;20028;-67
2023/07/08 01:43:27;;;;;;;52.38;18.50;;;;;;;;;;6151404;23;20030;-64
2023/07/08 01:46:02;;;;;;;52.90;16.67;;;;;;;;;;6150378;23;20028;-66
2023/07/08 01:48:32;;;;;;;40.10;15.48;;;;;;;;;;6150322;23;20048;-66
2023/07/08 01:51:04;;;;;;;59.50;18.35;;;;;;;;;;6151301;23;20026;-67
2023/07/08 01:53:40;;;;;;;62.67;19.20;;;;;;;;;;6151042;23;20018;-67
2023/07/08 01:56:07;;;;;;;65.25;18.90;;;;;;;;;;6149404;23;20029;-65
2023/07/08 01:58:41;;;;;;;69.80;20.63;;;;;;;;;;6150773;23;20025;-66
2023/07/08 02:01:08;;;;;;;74.15;20.75;;;;;;;;;;6150420;23;20025;-50
2023/07/08 02:03:35;;;;;;;80.40;20.85;;;;;;;;;;6148956;23;20092;-60
2023/07/08 02:06:11;;;;;;;77.85;21.55;;;;;;;;;;6150373;23;20022;-62
2023/07/08 02:08:38;;;;;;;59.00;19.30;;;;;;;;;;6149999;23;20021;-62
2023/07/08 02:11:05;;;;;;;46.40;18.02;;;;;;;;;;6150069;23;20030;-62
2023/07/08 02:13:39;;;;;;;65.60;21.02;;;;;;;;;;6150347;23;20026;-62
2023/07/08 02:16:19;;;;;;;69.65;19.10;;;;;;;;;;6148408;23;20068;-62
2023/07/08 02:18:47;;;;;;;80.30;21.75;;;;;;;;;;6149991;23;20044;-60
2023/07/08 02:21:21;;;;;;;57.17;20.08;;;;;;;;;;6150961;23;20049;-61
2023/07/08 02:23:55;;;;;;;63.63;20.38;;;;;;;;;;6150807;23;20030;-62
2023/07/08 02:26:31;;;;;;;53.45;20.15;;;;;;;;;;6149434;23;20026;-61
2023/07/08 02:28:59;;;;;;;62.13;19.88;;;;;;;;;;6148363;23;20064;-62
2023/07/08 02:31:27;;;;;;;69.70;20.80;;;;;;;;;;6150451;23;20068;-50
2023/07/08 02:34:02;;;;;;;58.72;19.88;;;;;;;;;;6150875;23;20096;-57
2023/07/08 02:36:29;;;;;;;48.55;16.67;;;;;;;;;;6149614;23;20463;-58
2023/07/08 02:39:03;;;;;;;67.75;21.67;;;;;;;;;;6149794;23;20025;-58
2023/07/08 02:41:30;;;;;;;66.70;22.20;;;;;;;;;;6149611;23;20072;-58
2023/07/08 02:43:57;;;;;;;62.97;21.15;;;;;;;;;;6150084;23;20026;-57
2023/07/08 02:46:31;;;;;;;71.35;21.83;;;;;;;;;;6149820;23;20025;-57
2023/07/08 02:48:58;;;;;;;68.25;21.85;;;;;;;;;;6149719;23;20534;-52
2023/07/08 02:51:32;;;;;;;72.07;21.27;;;;;;;;;;6149773;23;20022;-56
2023/07/08 02:53:59;;;;;;;72.82;22.85;;;;;;;;;;6150415;23;20079;-55
2023/07/08 02:56:26;;;;;;;68.15;22.42;;;;;;;;;;6149736;23;20017;-51
2023/07/08 02:59:00;;;;;;;93.75;24.90;;;;;;;;;;6149468;23;20100;-62
2023/07/08 03:01:27;;;;;;;66.70;20.85;;;;;;;;;;6150027;23;20092;-61
2023/07/08 03:04:00;;;;;;;65.20;21.05;;;;;;;;;;6149571;23;20036;-62
2023/07/08 03:06:34;;;;;;;57.20;17.85;;;;;;;;;;6148917;23;20092;-62
2023/07/08 03:09:01;;;;;;;57.58;17.27;;;;;;;;;;6123884;23;20025;-62
2023/07/08 03:11:35;;;;;;;66.93;22.30;;;;;;;;;;6149124;23;20625;-63
2023/07/08 03:14:03;;;;;;;62.90;22.45;;;;;;;;;;6149946;23;20044;-62
2023/07/08 03:16:37;;;;;;;;;;;;;;;;;;6147670;23;20029;-49
2023/07/08 03:19:14;;;;;;;62.35;21.25;;;;;;;;;;6150351;23;19940;-54
2023/07/08 03:21:42;;;;;;;57.83;20.85;;;;;;;;;;6149807;23;20025;-54
2023/07/08 03:24:18;;;;;;;54.75;19.15;;;;;;;;;;6148868;23;20091;-52
2023/07/08 03:26:45;;;;;;;62.92;18.50;;;;;;;;;;6149643;23;20092;-58
2023/07/08 03:29:17;;;;;;;59.03;19.60;;;;;;;;;;6149932;23;20486;-54
2023/07/08 03:31:51;;;;;;;51.28;16.73;;;;;;;;;;6147785;23;20025;-67
2023/07/08 03:34:18;;;;;;;49.13;15.88;;;;;;;;;;6150258;23;20383;-67
2023/07/08 03:36:53;;;;;;;47.65;15.32;;;;;;;;;;6149600;23;20139;-67
2023/07/08 03:39:22;;;;;;;56.20;16.85;;;;;;;;;;6149377;23;20025;-67
2023/07/08 03:41:56;;;;;;;42.50;14.07;;;;;;;;;;6148607;23;20030;-67
2023/07/08 03:44:23;;;;;;;51.35;16.35;;;;;;;;;;6150087;23;20032;-67
2023/07/08 03:46:50;;;;;;;46.85;14.85;;;;;;;;;;6148087;23;20403;-56
2023/07/08 03:49:24;;;;;;;52.85;15.98;;;;;;;;;;6149905;23;20022;-56
2023/07/08 03:51:53;;;;;;;47.40;14.30;;;;;;;;;;6149700;23;20084;-54
2023/07/08 03:54:27;;;;;;;40.10;13.90;;;;;;;;;;6148701;23;20053;-55
2023/07/08 03:56:55;;;;;;;51.80;14.20;;;;;;;;;;6149275;23;20021;-60
2023/07/08 03:59:22;;;;;;;38.22;12.55;;;;;;;;;;6149256;23;20407;-60
2023/07/08 04:01:56;;;;;;;38.90;12.02;;;;;;;;;;6149010;23;20045;-60
2023/07/08 04:04:23;;;;;;;34.92;11.68;;;;;;;;;;6150217;23;20029;-60
2023/07/08 04:06:57;;;;;;;26.38;9.05;;;;;;;;;;6149977;23;20424;-60
2023/07/08 04:09:24;;;;;;;29.65;8.85;;;;;;;;;;6147870;23;20349;-61
2023/07/08 04:11:51;;;;;;;33.20;8.05;;;;;;;;;;6148936;23;20285;-60
2023/07/08 04:14:42;;;;;;;21.20;6.80;;;;;;;;;;6149192;23;20026;-56
2023/07/08 04:17:17;;;;;;;21.05;6.82;;;;;;;;;;6147812;23;20087;-57
2023/07/08 04:19:51;;;;;;;21.25;6.95;;;;;;;;;;6149429;23;20550;-54
2023/07/08 04:22:18;;;;;;;24.90;7.45;;;;;;;;;;6124384;23;20388;-55
2023/07/08 04:24:45;;;;;;;19.95;7.25;;;;;;;;;;6148007;23;20025;-53
2023/07/08 04:27:19;;;;;;;23.88;7.00;;;;;;;;;;6149668;23;20349;-57
2023/07/08 04:29:46;;;;;;;22.60;6.95;;;;;;;;;;6149156;23;20399;-56
2023/07/08 04:32:24;;;;;;;23.52;7.32;;;;;;;;;;6148539;23;20084;-55
2023/07/08 04:34:52;;;;;;;22.42;7.78;;;;;;;;;;6149425;23;20040;-51
2023/07/08 04:37:20;;;;;;;32.60;8.20;;;;;;;;;;6149010;23;20021;-56
2023/07/08 04:39:54;;;;;;;23.60;8.52;;;;;;;;;;6148720;23;20026;-53
2023/07/08 04:42:21;;;;;;;21.95;8.45;;;;;;;;;;6151661;23;20029;-63
2023/07/08 04:44:55;;;;;;;29.13;7.80;;;;;;;;;;6151059;23;20080;-62
2023/07/08 04:47:22;;;;;;;22.75;8.02;;;;;;;;;;6151114;23;20367;-63
2023/07/08 04:49:49;;;;;;;26.15;7.43;;;;;;;;;;6151478;23;20022;-63
2023/07/08 04:52:23;;;;;;;24.00;8.15;;;;;;;;;;6150386;23;20084;-49
2023/07/08 04:54:50;;;;;;;22.23;7.75;;;;;;;;;;6150873;23;20032;-52
2023/07/08 04:57:25;;;;;;;30.60;7.93;;;;;;;;;;6150146;23;20033;-55
2023/07/08 04:59:52;;;;;;;28.27;7.75;;;;;;;;;;6151402;23;20107;-55
2023/07/08 05:02:19;;;;;;;22.70;8.05;;;;;;;;;;6150646;23;20409;-56
2023/07/08 05:04:53;;;;;;;23.55;7.93;;;;;;;;;;6150241;23;20099;-52
2023/07/08 05:07:20;;;;;;;30.50;8.65;;;;;;;;;;6150426;23;20072;-53
2023/07/08 05:09:54;;;;;;;28.70;7.75;;;;;;;;;;6151937;23;20021;-54
2023/07/08 05:12:21;;;;;;;19.70;7.47;;;;;;;;;;6150415;23;20467;-54
2023/07/08 05:14:48;;;;;;;25.35;8.18;;;;;;;;;;6148251;23;20029;-55
2023/07/08 05:17:29;;;;;;;27.25;7.70;;;;;;;;;;6151160;23;20076;-51
2023/07/08 05:20:00;;;;;;;23.48;7.45;;;;;;;;;;6151025;23;20033;-50
2023/07/08 05:22:34;;;;;;;22.52;7.60;;;;;;;;;;6149614;23;20471;-63
2023/07/08 05:25:02;;;;;;;26.27;7.95;;;;;;;;;;6150474;23;20080;-67
2023/07/08 05:27:29;;;;;;;;;;;;;;;;;;6151809;23;20059;-67
2023/07/08 05:30:04;;;;;;;24.05;7.25;;;;;;;;;;6149476;23;19983;-67
2023/07/08 05:32:31;;;;;;;25.60;6.35;;;;;;;;;;6151323;23;20021;-67
2023/07/08 05:34:58;;;;;;;25.98;7.00;;;;;;;;;;6151273;23;20072;-67
2023/07/08 05:37:34;;;;;;;22.85;7.18;;;;;;;;;;6149744;23;20356;-67
2023/07/08 05:40:04;;;;;;;17.63;6.57;;;;;;;;;;6151134;23;20094;-51
2023/07/08 05:42:38;;;;;;;22.63;7.22;;;;;;;;;;6151199;23;20026;-53
2023/07/08 05:45:10;;;;;;;21.15;7.05;;;;;;;;;;6149747;23;20022;-50
2023/07/08 05:47:37;;;;;;;28.08;6.75;;;;;;;;;;6150208;23;20470;-53
2023/07/08 05:50:11;;;;;;;24.77;6.65;;;;;;;;;;6150779;23;20072;-53
2023/07/08 05:52:38;;;;;;;18.92;6.63;;;;;;;;;;6149288;23;20471;-57
2023/07/08 05:55:12;;;;;;;20.83;6.45;;;;;;;;;;6150288;23;20076;-57
2023/07/08 05:57:39;;;;;;;19.85;7.00;;;;;;;;;;6150619;23;20056;-57
2023/07/08 06:00:07;;;;;;;24.48;6.60;;;;;;;;;;6150796;23;20021;-58
2023/07/08 06:02:50;;;;;;;18.15;5.65;;;;;;;;;;6150534;23;20363;-58
2023/07/08 06:05:17;;;;;;;21.38;6.10;;;;;;;;;;6149459;23;20406;-58
2023/07/08 06:07:51;;;;;;;19.98;5.90;;;;;;;;;;6150746;23;20029;-58
2023/07/08 06:10:18;;;;;;;17.50;5.95;;;;;;;;;;6149820;23;20052;-58
2023/07/08 06:12:45;;;;;;;16.95;5.95;;;;;;;;;;6150140;23;20087;-58
2023/07/08 06:15:26;;;;;;;16.00;5.72;;;;;;;;;;6147539;23;20367;-58
2023/07/08 06:18:02;;;;;;;15.82;5.47;;;;;;;;;;6150135;23;20029;-54
2023/07/08 06:20:36;;;;;;;16.70;6.30;;;;;;;;;;6149370;23;20021;-53
2023/07/08 06:23:03;;;;;;;16.33;5.50;;;;;;;;;;6150137;23;20021;-54
2023/07/08 06:25:31;;;;;;;17.60;5.80;;;;;;;;;;6151043;23;20026;-51
2023/07/08 06:28:05;;;;;;;20.83;5.60;;;;;;;;;;6150116;23;20029;-55
2023/07/08 06:30:32;;;;;;;13.90;5.45;;;;;;;;;;6148523;23;20025;-53
2023/07/08 06:32:59;;;;;;;11.85;5.47;;;;;;;;;;6150761;23;20037;-51
2023/07/08 06:35:33;;;;;;;16.00;5.43;;;;;;;;;;6149570;23;20865;-59
2023/07/08 06:38:00;;;;;;;15.20;4.72;;;;;;;;;;6150297;23;20032;-59
2023/07/08 06:40:28;;;;;;;14.55;4.80;;;;;;;;;;6150440;23;20065;-58
2023/07/08 06:43:03;;;;;;;18.73;4.60;;;;;;;;;;6150607;23;20036;-58
2023/07/08 06:45:30;;;;;;;16.25;4.65;;;;;;;;;;6148927;23;20452;-67
2023/07/08 06:47:57;;;;;;;15.95;4.78;;;;;;;;;;6151181;23;20044;-46
2023/07/08 06:50:31;;;;;;;13.63;4.90;;;;;;;;;;6150428;23;20022;-57
2023/07/08 06:52:58;;;;;;;13.30;4.95;;;;;;;;;;6149503;23;20378;-57
2023/07/08 06:55:32;;;;;;;11.70;4.75;;;;;;;;;;6149824;23;20340;-58
2023/07/08 06:57:59;;;;;;;15.50;5.20;;;;;;;;;;6149825;23;20029;-58
2023/07/08 07:00:26;;;;;;;14.10;4.47;;;;;;;;;;6149956;23;20022;-57
2023/07/08 07:03:00;;;;;;;12.32;4.35;;;;;;;;;;6149906;23;20546;-58
2023/07/08 07:05:27;;;;;;;11.52;4.78;;;;;;;;;;6150960;23;20101;-67
2023/07/08 07:08:01;;;;;;;14.20;4.45;;;;;;;;;;6149248;23;20449;-68
2023/07/08 07:10:28;;;;;;;15.05;4.65;;;;;;;;;;6149279;23;20347;-67
2023/07/08 07:12:55;;;;;;;13.57;4.60;;;;;;;;;;6149171;23;20025;-68
2023/07/08 07:15:36;;;;;;;12.35;4.15;;;;;;;;;;6148072;23;20025;-57
2023/07/08 07:18:10;;;;;;;16.60;5.03;;;;;;;;;;6150207;23;20463;-54
2023/07/08 07:20:49;;;;;;;9.75;4.38;;;;;;;;;;6148086;23;20021;-55
2023/07/08 07:23:23;;;;;;;16.75;4.68;;;;;;;;;;6150166;23;20025;-56
2023/07/08 07:25:50;;;;;;;10.57;4.13;;;;;;;;;;6148912;23;20025;-54
2023/07/08 07:28:24;;;;;;;12.50;4.55;;;;;;;;;;6149778;23;20028;-56
2023/07/08 07:30:59;;;;;;;11.20;4.38;;;;;;;;;;6148598;23;20029;-57
2023/07/08 07:33:32;;;;;;;13.63;5.05;;;;;;;;;;6150103;23;20581;-57
2023/07/08 07:35:59;;;;;;;9.57;4.00;;;;;;;;;;6148808;23;20021;-58
2023/07/08 07:38:28;;;;;;;9.90;4.50;;;;;;;;;;6150048;23;20033;-58
2023/07/08 07:41:05;;;;;;;10.00;4.30;;;;;;;;;;6150196;23;20030;-58
2023/07/08 07:43:34;;;;;;;10.55;3.60;;;;;;;;;;6148073;23;20459;-57
2023/07/08 07:46:10;;;;;;;10.38;3.83;;;;;;;;;;6150191;23;20080;-59
2023/07/08 07:48:37;;;;;;;18.55;4.47;;;;;;;;;;6148723;23;20471;-59
2023/07/08 07:51:05;;;;;;;9.73;4.45;;;;;;;;;;6149438;23;20072;-59
2023/07/08 07:53:39;;;;;;;11.82;4.07;;;;;;;;;;6149635;23;20025;-59
2023/07/08 07:56:06;;;;;;;11.15;4.25;;;;;;;;;;6149004;23;20138;-59
2023/07/08 07:58:40;;;;;;;9.73;4.35;;;;;;;;;;6149423;23;20084;-58
2023/07/08 08:01:07;;;;;;;10.98;4.57;;;;;;;;;;6149210;23;20026;-68
2023/07/08 08:03:34;;;;;;;11.45;4.40;;;;;;;;;;6150188;23;20021;-69
2023/07/08 08:06:08;;;;;;;13.18;4.07;;;;;;;;;;6148039;23;20356;-70
2023/07/08 08:08:35;;;;;;;12.63;4.88;;;;;;;;;;6149956;23;20029;-70
2023/07/08 08:11:09;;;;;;;12.60;4.13;;;;;;;;;;6149610;23;20025;-54
2023/07/08 08:13:36;;;;;;;9.75;4.72;;;;;;;;;;6149246;23;20079;-59
2023/07/08 08:16:04;;;;;;;11.27;4.57;;;;;;;;;;6148663;23;20028;-58
2023/07/08 08:18:37;;;;;;;8.77;3.95;;;;;;;;;;6151189;23;20036;-58
2023/07/08 08:21:04;;;;;;;13.32;4.00;;;;;;;;;;6151480;23;20022;-59
2023/07/08 08:23:38;;;;;;;12.40;4.43;;;;;;;;;;6151649;23;20025;-59
2023/07/08 08:26:05;;;;;;;8.02;3.92;;;;;;;;;;6150964;23;20467;-59
2023/07/08 08:28:32;;;;;;;13.23;4.10;;;;;;;;;;6151454;23;20025;-60
2023/07/08 08:50:50;;;;;;;11.30;3.88;;;;;;;;;;6178411;23;20021;-57
2023/07/08 08:53:25;;;;;;;8.85;3.80;;;;;;;;;;6179080;23;20031;-56
2023/07/08 08:56:18;;;;;;;11.07;3.78;;;;;;;;;;6178445;23;20021;-57
2023/07/08 08:58:49;;;;;;;5.82;3.50;;;;;;;;;;6179081;23;20021;-58
2023/07/08 09:01:23;;;;;;;10.25;3.85;;;;;;;;;;6178851;23;20025;-57
2023/07/08 09:04:02;;;;;;;7.68;3.60;;;;;;;;;;6177421;23;20025;-58
2023/07/08 09:06:36;;;;;;;5.82;3.08;;;;;;;;;;6148230;23;20176;-58
2023/07/08 09:09:16;;;;;;;6.47;3.25;;;;;;;;;;6122644;23;20073;-58
2023/07/08 09:12:00;;;;;;;6.07;3.47;;;;;;;;;;6148350;23;20030;-57
2023/07/08 09:14:28;;;;;;;8.15;3.85;;;;;;;;;;6149435;23;20033;-56
2023/07/08 09:17:14;;;;;;;8.93;3.40;;;;;;;;;;6149704;23;20066;-57
2023/07/08 09:19:44;;;;;;;8.23;3.40;;;;;;;;;;6148054;23;20033;-57
2023/07/08 09:22:26;;;;;;;13.27;3.70;;;;;;;;;;6149208;23;20021;-55
2023/07/08 09:25:16;;;;;;;9.07;3.65;;;;;;;;;;6148585;23;20488;-54
2023/07/08 09:27:50;;;;;;;8.02;3.30;;;;;;;;;;6140401;23;20026;-56
2023/07/08 09:30:20;;;;;;;9.82;3.60;;;;;;;;;;6149746;23;20026;-58
2023/07/08 09:32:54;;;;;;;9.20;3.58;;;;;;;;;;6147547;23;20099;-57
2023/07/08 09:35:21;;;;;;;;;;;;;;;;;;6149114;23;20021;-58
2023/07/08 09:37:55;;;;;;;8.02;3.00;;;;;;;;;;6147458;23;20443;-57
2023/07/08 09:40:29;;;;;;;7.13;3.50;;;;;;;;;;6123877;23;20392;-57
2023/07/08 09:43:12;;;;;;;7.97;3.40;;;;;;;;;;6147217;23;20540;-57
2023/07/08 09:45:44;;;;;;;7.60;3.42;;;;;;;;;;6148713;23;20084;-57
2023/07/08 09:48:34;;;;;;;13.00;3.50;;;;;;;;;;6147423;23;20028;-57
2023/07/08 09:51:09;;;;;;;5.72;3.03;;;;;;;;;;6148480;23;20026;-56
2023/07/08 09:53:44;;;;;;;5.85;3.42;;;;;;;;;;6149029;23;20076;-57
2023/07/08 09:56:12;;;;;;;7.72;3.30;;;;;;;;;;6147277;23;20025;-59
2023/07/08 09:58:48;;;;;;;7.75;3.28;;;;;;;;;;6148420;23;20030;-59
2023/07/08 10:01:24;;;;;;;8.48;3.50;;;;;;;;;;6147966;23;20080;-59
2023/07/08 10:03:51;;;;;;;9.82;3.55;;;;;;;;;;6146704;23;20537;-59
2023/07/08 10:06:27;;;;;;;9.43;3.83;;;;;;;;;;6148569;23;20472;-50
2023/07/08 10:08:55;;;;;;;8.73;3.85;;;;;;;;;;6147639;23;20029;-58
2023/07/08 10:11:30;;;;;;;9.18;3.75;;;;;;;;;;6148134;23;20072;-58
2023/07/08 10:14:04;;;;;;;8.05;3.50;;;;;;;;;;6148861;23;20048;-57
2023/07/08 10:16:41;;;;;;;9.57;3.92;;;;;;;;;;6147564;23;20088;-58
2023/07/08 10:19:16;;;;;;;7.38;3.58;;;;;;;;;;6148944;23;20022;-58
2023/07/08 10:21:50;;;;;;;12.35;3.35;;;;;;;;;;6146811;23;20026;-59
2023/07/08 10:24:17;;;;;;;;;;;;;;;;;;6149847;23;20484;-58
2023/07/08 10:26:46;;;;;;;5.82;3.30;;;;;;;;;;6146798;23;19955;-58
2023/07/08 10:29:23;;;;;;;9.75;3.78;;;;;;;;;;6148600;23;20383;-59
2023/07/08 10:32:08;;;;;;;6.53;3.38;;;;;;;;;;6148345;23;20033;-59
2023/07/08 10:35:02;;;;;;;8.60;3.60;;;;;;;;;;6148159;23;20026;-68
2023/07/08 10:37:57;;;;;;;8.07;3.20;;;;;;;;;;6132246;23;20547;-69
2023/07/08 10:40:31;;;;;;;7.25;2.65;;;;;;;;;;6119370;23;20021;-68
2023/07/08 10:42:58;;;;;;;;;;;;;;;;;;6148050;23;20021;-69
2023/07/08 10:45:40;;;;;;;6.10;3.45;;;;;;;;;;6147677;23;19921;-69
2023/07/08 10:48:17;;;;;;;5.40;3.28;;;;;;;;;;6146822;23;20091;-69
2023/07/08 10:51:01;;;;;;;6.05;3.78;;;;;;;;;;6147150;23;20147;-68
2023/07/08 10:53:28;;;;;;;6.47;3.70;;;;;;;;;;6148409;23;20036;-59
2023/07/08 10:56:22;;;;;;;7.85;3.83;;;;;;;;;;6147737;23;20067;-58
2023/07/08 10:59:07;;;;;;;6.78;3.63;;;;;;;;;;6103568;23;20080;-59
2023/07/08 11:01:49;;;;;;;6.82;3.60;;;;;;;;;;6147700;23;20504;-59
2023/07/08 11:04:28;;;;;;;6.85;3.60;;;;;;;;;;6147950;23;20480;-55
2023/07/08 11:07:08;;;;;;;8.48;3.70;;;;;;;;;;6147663;23;20032;-58
2023/07/08 11:09:46;;;;;;;8.73;3.50;;;;;;;;;;6147404;23;20025;-59
2023/07/08 11:12:36;;;;;;;7.07;3.38;;;;;;;;;;6147609;23;20091;-62
2023/07/08 11:15:16;;;;;;;5.40;3.25;;;;;;;;;;6147780;23;20025;-59
2023/07/08 11:17:53;;;;;;;6.50;3.25;;;;;;;;;;6146832;23;20055;-59
2023/07/08 11:20:26;;;;;;;5.90;3.17;;;;;;;;;;6149004;23;20479;-63
2023/07/08 11:23:03;;;;;;;4.75;3.13;;;;;;;;;;6147138;23;20088;-62
2023/07/08 11:25:31;;;;;;;6.25;3.47;;;;;;;;;;6148090;23;20038;-65
2023/07/08 11:28:03;;;;;;;5.97;3.25;;;;;;;;;;6148214;23;20085;-63
2023/07/08 11:30:39;;;;;;;6.90;3.00;;;;;;;;;;6146808;23;20029;-58
2023/07/08 11:33:10;;;;;;;7.80;2.92;;;;;;;;;;6146997;23;20052;-54
2023/07/08 11:35:49;;;;;;;7.25;3.25;;;;;;;;;;6123712;23;20022;-68
2023/07/08 11:38:18;;;;;;;6.82;3.38;;;;;;;;;;6147671;23;20317;-67
2023/07/08 11:40:52;;;;;;;7.03;3.05;;;;;;;;;;6147304;23;20025;-67
2023/07/08 11:43:19;;;;;;;;;;;;;;;;;;6147128;23;20476;-68
2023/07/08 11:45:48;;;;;;;7.43;3.38;;;;;;;;;;6147948;23;19916;-68
2023/07/08 11:48:37;;;;;;;13.35;3.53;;;;;;;;;;6147828;23;20048;-59
2023/07/08 11:51:15;;;;;;;4.35;2.65;;;;;;;;;;6147299;23;20136;-55
2023/07/08 11:54:09;;;;;;;7.50;3.05;;;;;;;;;;6146799;23;20026;-54
2023/07/08 11:57:00;;;;;;;6.32;2.90;;;;;;;;;;6131906;23;20389;-54
2023/07/08 11:59:38;;;;;;;6.25;2.97;;;;;;;;;;6140013;23;20432;-56
2023/07/08 12:02:19;;;;;;;4.85;2.67;;;;;;;;;;6147475;23;20029;-61
2023/07/08 12:04:59;;;;;;;6.45;3.42;;;;;;;;;;6147578;23;20480;-60
2023/07/08 12:07:55;;;;;;;7.38;3.10;;;;;;;;;;6147932;23;20100;-60
2023/07/08 12:10:34;;;;;;;9.73;3.47;;;;;;;;;;6133802;23;20464;-61
2023/07/08 12:13:02;;;;;;;6.05;3.03;;;;;;;;;;6145944;23;20026;-61
2023/07/08 12:15:36;;;;;;;5.38;2.97;;;;;;;;;;6147581;23;20025;-61
2023/07/08 12:18:03;;;;;;;;;;;;;;;;;;6148138;23;20076;-59
2023/07/08 12:20:32;;;;;;;4.85;2.83;;;;;;;;;;6147021;23;19927;-60
2023/07/08 12:23:13;;;;;;;8.48;3.40;;;;;;;;;;6146418;23;20026;-59
2023/07/08 12:25:40;;;;;;;4.30;3.00;;;;;;;;;;6145584;23;20080;-60
2023/07/08 12:28:14;;;;;;;6.78;2.97;;;;;;;;;;6146696;23;20021;-55
2023/07/08 12:30:43;;;;;;;8.73;3.00;;;;;;;;;;6147030;23;20104;-70
2023/07/08 12:33:22;;;;;;;5.32;2.92;;;;;;;;;;6146850;23;20088;-70
2023/07/08 12:35:50;;;;;;;6.40;3.20;;;;;;;;;;6146631;23;20056;-70
2023/07/08 12:38:28;;;;;;;6.00;3.60;;;;;;;;;;6147006;23;20100;-70
2023/07/08 12:41:04;;;;;;;10.25;2.70;;;;;;;;;;6145590;23;20631;-69
2023/07/08 12:43:37;;;;;;;7.55;2.95;;;;;;;;;;6147077;23;20029;-70
2023/07/08 12:46:04;;;;;;;7.90;2.70;;;;;;;;;;6149087;23;20028;-60
2023/07/08 12:48:33;;;;;;;7.55;2.83;;;;;;;;;;6145636;23;20032;-60
2023/07/08 12:51:20;;;;;;;5.70;3.28;;;;;;;;;;6117583;23;20037;-59
2023/07/08 12:53:48;;;;;;;5.78;2.80;;;;;;;;;;6116362;23;20053;-61
2023/07/08 12:56:23;;;;;;;5.43;2.90;;;;;;;;;;6115634;23;20026;-64
2023/07/08 12:58:56;;;;;;;8.27;3.15;;;;;;;;;;6116693;23;20026;-65
2023/07/08 13:01:31;;;;;;;5.43;2.95;;;;;;;;;;6116529;23;20022;-64
2023/07/08 13:04:02;;;;;;;6.47;3.00;;;;;;;;;;6117821;23;20026;-64
2023/07/08 13:06:37;;;;;;;5.97;2.95;;;;;;;;;;6117135;23;20034;-64
2023/07/08 13:09:33;;;;;;;4.13;2.47;;;;;;;;;;6118028;23;20024;-64
2023/07/08 13:12:17;;;;;;;6.20;3.03;;;;;;;;;;6101804;23;20026;-64
2023/07/08 13:14:44;;;;;;;5.80;2.50;;;;;;;;;;6118096;23;20100;-57
2023/07/08 13:17:18;;;;;;;4.95;2.53;;;;;;;;;;6116901;23;20050;-55
2023/07/08 13:19:45;;;;;;;;;;;;;;;;;;6119287;23;20026;-56
2023/07/08 13:22:17;;;;;;;5.78;3.13;;;;;;;;;;6116669;23;19976;-53
2023/07/08 13:24:59;;;;;;;6.13;2.92;;;;;;;;;;6116865;23;20859;-69
2023/07/08 13:27:26;;;;;;;6.70;3.00;;;;;;;;;;6117979;23;20033;-55
2023/07/08 13:30:14;;;;;;;7.75;3.42;;;;;;;;;;6118164;23;20489;-57
2023/07/08 13:32:41;;;;;;;6.72;3.10;;;;;;;;;;6115973;23;20030;-56
2023/07/08 13:35:26;;;;;;;8.55;3.25;;;;;;;;;;6118545;23;20022;-56
2023/07/08 13:37:54;;;;;;;7.85;2.95;;;;;;;;;;6116831;23;20040;-58
2023/07/08 13:40:28;;;;;;;9.02;3.00;;;;;;;;;;6118683;23;20085;-58
2023/07/08 13:42:55;;;;;;;5.07;3.00;;;;;;;;;;6117001;23;20029;-59
2023/07/08 13:45:31;;;;;;;6.75;3.10;;;;;;;;;;6117635;23;20437;-60
2023/07/08 13:48:03;;;;;;;5.13;2.80;;;;;;;;;;6116790;23;20018;-60
2023/07/08 13:50:57;;;;;;;4.35;2.72;;;;;;;;;;5795865;23;8134253;-59
2023/07/08 13:53:42;;;;;;;7.90;3.05;;;;;;;;;;6148307;23;20049;-61
2023/07/08 13:56:27;;;;;;;5.65;3.08;;;;;;;;;;6148185;23;20025;-57
2023/07/08 13:59:01;;;;;;;4.85;2.72;;;;;;;;;;6148407;23;20025;-55
2023/07/08 14:01:38;;;;;;;7.45;3.03;;;;;;;;;;6148311;23;20029;-57
2023/07/08 14:04:06;;;;;;;7.45;3.22;;;;;;;;;;6149483;23;20025;-57
2023/07/08 14:06:38;;;;;;;7.45;3.20;;;;;;;;;;6147573;23;20080;-55
2023/07/08 14:09:11;;;;;;;;;;;;;;;;;;6148737;23;20489;-58
2023/07/08 14:11:38;;;;;;;5.53;3.08;;;;;;;;;;6147312;23;19923;-60
2023/07/08 14:14:12;;;;;;;5.30;2.78;;;;;;;;;;6148539;23;20026;-60
2023/07/08 14:16:42;;;;;;;7.65;3.38;;;;;;;;;;6146015;23;20072;-60
2023/07/08 14:19:13;;;;;;;5.35;3.00;;;;;;;;;;6149018;23;20021;-60
2023/07/08 14:21:52;;;;;;;7.05;3.38;;;;;;;;;;6148629;23;20028;-60
2023/07/08 14:24:19;;;;;;;5.97;2.90;;;;;;;;;;6147847;23;20024;-68
2023/07/08 14:26:46;;;;;;;;;;;;;;;;;;6148579;23;20523;-68
2023/07/08 14:29:20;;;;;;;6.75;2.90;;;;;;;;;;6148451;23;20233;-68
2023/07/08 14:31:47;;;;;;;6.07;3.20;;;;;;;;;;6146412;23;20436;-67
2023/07/08 14:34:23;;;;;;;5.90;3.03;;;;;;;;;;6148757;23;20060;-68
2023/07/08 14:36:51;;;;;;;6.57;3.20;;;;;;;;;;6146922;23;20025;-67
2023/07/08 14:39:34;;;;;;;6.95;2.60;;;;;;;;;;6148696;23;20025;-63
2023/07/08 14:42:01;;;;;;;9.07;3.10;;;;;;;;;;6147451;23;20104;-64
2023/07/08 14:44:36;;;;;;;8.73;3.20;;;;;;;;;;6148534;23;20096;-63
2023/07/08 14:47:07;;;;;;;6.35;2.88;;;;;;;;;;6148113;23;20031;-63
2023/07/08 14:49:35;;;;;;;6.82;3.20;;;;;;;;;;6145418;23;20571;-60
2023/07/08 14:52:15;;;;;;;4.78;2.72;;;;;;;;;;6147931;23;20547;-53
2023/07/08 14:54:42;;;;;;;6.55;2.97;;;;;;;;;;6147621;23;20026;-60
2023/07/08 14:57:17;;;;;;;5.88;2.92;;;;;;;;;;6147081;23;20064;-59
2023/07/08 14:59:44;;;;;;;4.63;2.83;;;;;;;;;;6147785;23;20084;-59
2023/07/08 15:02:11;;;;;;;;;;;;;;;;;;6147923;23;20350;-60
2023/07/08 15:04:46;;;;;;;5.57;2.78;;;;;;;;;;6148632;23;19920;-59
2023/07/08 15:07:13;;;;;;;4.60;2.80;;;;;;;;;;6146496;23;20108;-58
2023/07/08 15:09:48;;;;;;;8.27;3.28;;;;;;;;;;6149081;23;20424;-58
2023/07/08 15:12:15;;;;;;;4.97;3.15;;;;;;;;;;6147976;23;20080;-60
2023/07/08 15:14:42;;;;;;;7.50;2.97;;;;;;;;;;6146839;23;20076;-60
2023/07/08 15:17:16;;;;;;;6.60;3.17;;;;;;;;;;6147991;23;20029;-60
2023/07/08 15:19:44;;;;;;;6.68;3.05;;;;;;;;;;6147705;23;20048;-60
2023/07/08 15:22:18;;;;;;;6.13;2.88;;;;;;;;;;6147537;23;20511;-61
2023/07/08 15:24:45;;;;;;;;;;;;;;;;;;6148072;23;20158;-61
2023/07/08 15:27:13;;;;;;;6.28;3.20;;;;;;;;;;6148067;23;19921;-61
2023/07/08 15:29:47;;;;;;;8.82;3.45;;;;;;;;;;6147240;23;20270;-61